createdAt,value
2022-10-15T00:01:23.450Z,13.90
2022-10-15T00:03:50.699Z,13.90
2022-10-15T00:06:20.911Z,13.80
2022-10-15T00:08:48.602Z,13.80
2022-10-15T00:11:20.027Z,13.80
2022-10-15T00:13:48.736Z,13.90
2022-10-15T00:16:19.967Z,13.90
2022-10-15T00:18:48.287Z,13.80
2022-10-15T00:21:18.817Z,13.80
2022-10-15T00:23:47.025Z,13.80
2022-10-15T00:26:18.090Z,13.80
2022-10-15T00:28:45.769Z,13.80
2022-10-15T00:31:16.865Z,13.70
2022-10-15T00:33:50.599Z,13.70
2022-10-15T00:36:21.897Z,13.70
2022-10-15T00:38:50.461Z,13.70
2022-10-15T00:41:24.773Z,13.70
2022-10-15T00:43:55.896Z,13.70
2022-10-15T00:46:40.620Z,13.70
2022-10-15T00:49:26.744Z,13.70
2022-10-15T00:52:22.232Z,13.70
2022-10-15T00:55:15.915Z,13.70
2022-10-15T00:57:44.470Z,13.70
2022-10-15T01:00:17.640Z,13.70
2022-10-15T01:02:46.238Z,13.60
2022-10-15T01:05:16.801Z,13.60
2022-10-15T01:07:44.168Z,13.70
2022-10-15T01:10:12.296Z,13.70
2022-10-15T01:12:59.022Z,13.70
2022-10-15T01:15:53.541Z,13.80
2022-10-15T01:18:37.530Z,13.70
2022-10-15T01:21:15.547Z,13.70
2022-10-15T01:24:23.382Z,13.70
2022-10-15T01:27:14.856Z,13.60
2022-10-15T01:29:51.992Z,13.70
2022-10-15T01:32:30.573Z,13.80
2022-10-15T01:35:28.352Z,13.80
2022-10-15T01:38:04.242Z,13.70
2022-10-15T01:40:46.407Z,13.70
2022-10-15T01:46:21.189Z,13.60
2022-10-15T01:49:03.994Z,13.60
2022-10-15T01:51:35.087Z,13.60
2022-10-15T01:54:06.238Z,13.60
2022-10-15T01:56:37.386Z,13.50
2022-10-15T01:59:05.444Z,13.60
2022-10-15T02:01:32.605Z,13.60
2022-10-15T02:03:59.752Z,13.50
2022-10-15T02:06:42.400Z,13.50
2022-10-15T02:10:00.133Z,13.50
2022-10-15T02:12:48.248Z,13.60
2022-10-15T02:15:53.536Z,13.60
2022-10-15T02:18:41.829Z,13.70
2022-10-15T02:21:17.929Z,13.70
2022-10-15T02:24:08.368Z,13.70
2022-10-15T02:26:36.850Z,13.60
2022-10-15T02:29:08.330Z,13.50
2022-10-15T02:31:37.235Z,13.50
2022-10-15T02:34:10.808Z,13.50
2022-10-15T02:36:41.424Z,13.40
2022-10-15T02:39:13.345Z,13.40
2022-10-15T02:41:40.736Z,13.40
2022-10-15T02:44:11.309Z,13.40
2022-10-15T02:46:38.516Z,13.40
2022-10-15T02:49:06.363Z,13.40
2022-10-15T02:51:35.964Z,13.40
2022-10-15T02:54:05.179Z,13.50
2022-10-15T02:56:32.388Z,13.30
2022-10-15T02:58:59.932Z,13.40
2022-10-15T03:01:27.505Z,13.40
2022-10-15T03:03:54.699Z,13.40
2022-10-15T03:06:21.773Z,13.30
2022-10-15T03:08:48.937Z,13.30
2022-10-15T03:11:16.069Z,13.30
2022-10-15T03:13:43.275Z,13.30
2022-10-15T03:16:11.765Z,13.30
2022-10-15T03:18:41.572Z,13.30
2022-10-15T03:21:10.563Z,13.40
2022-10-15T03:23:39.763Z,13.40
2022-10-15T03:26:14.098Z,13.30
2022-10-15T03:28:41.705Z,13.30
2022-10-15T03:31:10.204Z,13.30
2022-10-15T03:33:37.273Z,13.30
2022-10-15T03:36:05.099Z,13.40
2022-10-15T03:38:32.621Z,13.40
2022-10-15T03:41:00.135Z,13.30
2022-10-15T03:43:37.454Z,13.40
2022-10-15T03:46:08.793Z,13.30
2022-10-15T03:48:40.800Z,13.40
2022-10-15T03:51:10.490Z,13.40
2022-10-15T03:53:38.871Z,13.40
2022-10-15T03:56:07.106Z,13.40
2022-10-15T03:58:37.900Z,13.50
2022-10-15T04:01:15.708Z,13.50
2022-10-15T04:03:43.148Z,13.40
2022-10-15T04:06:10.411Z,13.40
2022-10-15T04:08:39.117Z,13.50
2022-10-15T04:11:22.790Z,13.50
2022-10-15T04:13:59.768Z,13.50
2022-10-15T04:16:27.124Z,13.50
2022-10-15T04:18:55.434Z,13.40
2022-10-15T04:21:22.504Z,13.50
2022-10-15T04:23:56.234Z,13.50
2022-10-15T04:26:32.452Z,13.40
2022-10-15T04:29:01.165Z,13.40
2022-10-15T04:31:29.541Z,13.30
2022-10-15T04:33:57.743Z,13.40
2022-10-15T04:36:25.504Z,13.50
2022-10-15T04:39:00.331Z,13.50
2022-10-15T04:41:36.157Z,13.50
2022-10-15T04:44:10.016Z,13.50
2022-10-15T04:46:39.217Z,13.50
2022-10-15T04:49:26.823Z,13.40
2022-10-15T04:51:53.974Z,13.40
2022-10-15T04:54:29.296Z,13.40
2022-10-15T04:57:05.302Z,13.30
2022-10-15T04:59:33.037Z,13.30
2022-10-15T05:02:21.519Z,13.20
2022-10-15T05:04:54.575Z,13.20
2022-10-15T05:07:22.086Z,13.20
2022-10-15T05:09:50.574Z,13.10
2022-10-15T05:12:17.665Z,13.20
2022-10-15T05:14:44.691Z,13.20
2022-10-15T05:17:20.593Z,13.10
2022-10-15T05:19:48.667Z,13.10
2022-10-15T05:22:24.098Z,13.10
2022-10-15T05:24:54.792Z,13.20
2022-10-15T05:27:32.688Z,13.20
2022-10-15T05:30:00.936Z,13.20
2022-10-15T05:32:39.017Z,13.30
2022-10-15T05:35:10.843Z,13.30
2022-10-15T05:37:53.028Z,13.30
2022-10-15T05:40:22.035Z,13.20
2022-10-15T05:43:05.013Z,13.20
2022-10-15T05:45:32.128Z,13.20
2022-10-15T05:48:04.706Z,13.20
2022-10-15T05:50:31.844Z,13.20
2022-10-15T05:53:00.086Z,13.20
2022-10-15T05:55:47.454Z,13.20
2022-10-15T05:58:14.603Z,13.20
2022-10-15T06:00:42.220Z,13.20
2022-10-15T06:03:14.894Z,13.30
2022-10-15T06:05:42.026Z,13.10
2022-10-15T06:08:09.077Z,13.20
2022-10-15T06:10:37.908Z,13.20
2022-10-15T06:13:06.241Z,13.40
2022-10-15T06:15:33.934Z,13.40
2022-10-15T06:18:01.928Z,13.40
2022-10-15T06:20:29.007Z,13.40
2022-10-15T06:23:00.231Z,13.40
2022-10-15T06:25:28.219Z,13.50
2022-10-15T06:27:55.355Z,13.70
2022-10-15T06:30:25.488Z,13.60
2022-10-15T06:32:54.027Z,13.70
2022-10-15T06:35:22.886Z,13.80
2022-10-15T06:37:50.167Z,13.80
2022-10-15T06:40:17.863Z,13.90
2022-10-15T06:42:45.521Z,14.00
2022-10-15T06:45:14.870Z,14.00
2022-10-15T06:47:44.039Z,14.00
2022-10-15T06:50:12.183Z,14.10
2022-10-15T06:52:39.491Z,14.20
2022-10-15T06:55:07.255Z,14.20
2022-10-15T06:57:34.490Z,14.40
2022-10-15T07:00:01.623Z,14.50
2022-10-15T07:02:29.765Z,14.40
2022-10-15T07:04:58.197Z,14.30
2022-10-15T07:07:25.306Z,14.50
2022-10-15T07:09:53.754Z,14.60
2022-10-15T07:12:22.539Z,14.70
2022-10-15T07:14:49.849Z,14.80
2022-10-15T07:17:17.858Z,14.90
2022-10-15T07:19:45.055Z,14.80
2022-10-15T07:22:12.126Z,14.80
2022-10-15T07:24:39.222Z,14.80
2022-10-15T07:27:18.184Z,14.70
2022-10-15T07:29:46.055Z,14.90
2022-10-15T07:32:13.072Z,15.10
2022-10-15T07:34:40.259Z,15.10
2022-10-15T07:37:07.394Z,15.10
2022-10-15T07:39:37.762Z,15.40
2022-10-15T07:42:07.909Z,15.70
2022-10-15T07:44:34.927Z,15.50
2022-10-15T07:47:07.972Z,15.80
2022-10-15T07:49:35.198Z,15.70
2022-10-15T07:52:02.275Z,15.90
2022-10-15T07:54:29.452Z,16.10
2022-10-15T07:56:56.422Z,16.00
2022-10-15T07:59:23.670Z,16.10
2022-10-15T08:01:51.427Z,16.10
2022-10-15T08:04:20.534Z,16.30
2022-10-15T08:06:49.930Z,16.20
2022-10-15T08:09:17.547Z,16.20
2022-10-15T08:11:44.546Z,16.20
2022-10-15T08:14:12.679Z,16.10
2022-10-15T08:16:39.781Z,16.10
2022-10-15T08:19:06.832Z,16.20
2022-10-15T08:21:33.812Z,16.20
2022-10-15T08:24:01.002Z,16.40
2022-10-15T08:26:34.386Z,16.40
2022-10-15T08:29:01.820Z,16.40
2022-10-15T08:31:28.947Z,16.60
2022-10-15T08:33:55.983Z,16.80
2022-10-15T08:36:23.086Z,17.00
2022-10-15T08:38:50.759Z,17.00
2022-10-15T08:41:48.886Z,17.10
2022-10-15T08:44:47.071Z,17.30
2022-10-15T08:47:38.083Z,17.40
2022-10-15T08:50:54.693Z,17.40
2022-10-15T08:53:25.738Z,17.00
2022-10-15T08:56:01.243Z,17.10
2022-10-15T08:58:49.323Z,17.00
2022-10-15T09:01:36.944Z,17.00
2022-10-15T09:07:32.036Z,16.80
2022-10-15T09:10:48.736Z,16.80
2022-10-15T09:13:46.746Z,16.80
2022-10-15T09:16:27.793Z,17.10
2022-10-15T09:18:56.405Z,17.20
2022-10-15T09:21:28.031Z,17.60
2022-10-15T09:24:05.217Z,17.50
2022-10-15T09:26:34.831Z,17.70
2022-10-15T09:29:30.682Z,17.80
2022-10-15T09:32:34.529Z,17.80
2022-10-15T09:35:28.176Z,17.90
2022-10-15T09:38:27.427Z,17.90
2022-10-15T09:41:16.695Z,17.70
2022-10-15T09:43:49.571Z,17.70
2022-10-15T09:46:19.302Z,17.90
2022-10-15T09:49:19.023Z,18.10
2022-10-15T09:52:15.199Z,17.90
2022-10-15T09:55:34.652Z,18.40
2022-10-15T09:58:18.130Z,18.60
2022-10-15T10:01:02.601Z,18.80
2022-10-15T10:03:36.998Z,18.90
2022-10-15T10:06:08.043Z,18.70
2022-10-15T10:08:59.317Z,18.70
2022-10-15T10:11:27.488Z,18.80
2022-10-15T10:13:57.970Z,18.80
2022-10-15T10:16:25.700Z,18.70
2022-10-15T10:19:12.564Z,18.60
2022-10-15T10:21:42.830Z,18.30
2022-10-15T10:24:30.311Z,18.10
2022-10-15T10:26:59.118Z,18.10
2022-10-15T10:29:35.389Z,18.30
2022-10-15T10:32:34.283Z,18.40
2022-10-15T10:35:04.380Z,18.60
2022-10-15T10:37:42.958Z,19.00
2022-10-15T10:40:33.840Z,19.20
2022-10-15T10:43:23.729Z,19.40
2022-10-15T10:45:59.443Z,19.30
2022-10-15T10:48:43.673Z,19.30
2022-10-15T10:51:23.037Z,19.30
2022-10-15T10:53:59.845Z,19.20
2022-10-15T10:56:40.695Z,19.10
2022-10-15T10:59:42.188Z,19.50
2022-10-15T11:02:12.637Z,19.40
2022-10-15T11:04:40.723Z,19.10
2022-10-15T11:07:35.300Z,18.90
2022-10-15T11:10:13.675Z,19.10
2022-10-15T11:15:50.164Z,19.50
2022-10-15T11:18:52.551Z,19.60
2022-10-15T11:21:53.788Z,19.40
2022-10-15T11:24:48.323Z,19.00
2022-10-15T11:28:17.800Z,18.70
2022-10-15T11:31:49.265Z,19.00
2022-10-15T11:34:50.746Z,18.90
2022-10-15T11:37:53.503Z,19.20
2022-10-15T11:40:25.927Z,19.40
2022-10-15T11:43:30.089Z,19.40
2022-10-15T11:46:24.965Z,19.50
2022-10-15T11:49:13.101Z,20.30
2022-10-15T11:52:08.271Z,20.40
2022-10-15T11:54:45.621Z,20.00
2022-10-15T11:57:17.251Z,20.00
2022-10-15T12:00:17.212Z,19.90
2022-10-15T12:02:45.537Z,20.10
2022-10-15T12:05:50.834Z,20.30
2022-10-15T12:08:19.574Z,19.90
2022-10-15T12:11:27.402Z,19.90
2022-10-15T12:13:57.152Z,20.00
2022-10-15T12:16:59.533Z,20.40
2022-10-15T12:19:51.241Z,20.00
2022-10-15T12:22:47.621Z,19.80
2022-10-15T12:25:36.592Z,19.80
2022-10-15T12:28:19.804Z,20.00
2022-10-15T12:31:05.207Z,19.90
2022-10-15T12:33:39.950Z,19.60
2022-10-15T12:36:21.917Z,19.70
2022-10-15T12:39:07.832Z,19.70
2022-10-15T12:41:49.041Z,19.80
2022-10-15T12:44:28.869Z,19.70
2022-10-15T12:46:56.858Z,19.80
2022-10-15T12:49:26.906Z,19.70
2022-10-15T12:51:56.273Z,19.70
2022-10-15T12:54:46.680Z,19.90
2022-10-15T12:57:30.983Z,19.70
2022-10-15T13:00:16.224Z,20.00
2022-10-15T13:02:47.718Z,20.90
2022-10-15T13:05:33.391Z,22.20
2022-10-15T13:08:04.574Z,23.60
2022-10-15T13:10:41.193Z,24.50
2022-10-15T13:13:16.789Z,25.90
2022-10-15T13:16:01.947Z,27.90
2022-10-15T13:18:31.627Z,28.90
2022-10-15T13:20:59.424Z,28.00
2022-10-15T13:23:33.464Z,29.60
2022-10-15T13:26:23.751Z,29.10
2022-10-15T13:28:52.974Z,30.10
2022-10-15T13:31:30.691Z,27.30
2022-10-15T13:34:27.936Z,25.60
2022-10-15T13:36:58.734Z,25.70
2022-10-15T13:39:45.178Z,24.90
2022-10-15T13:42:23.363Z,24.40
2022-10-15T13:45:13.934Z,25.20
2022-10-15T13:47:53.775Z,26.80
2022-10-15T13:50:24.766Z,28.80
2022-10-15T13:53:22.943Z,28.30
2022-10-15T13:55:53.483Z,27.90
2022-10-15T13:58:29.365Z,24.80
2022-10-15T14:01:00.231Z,24.60
2022-10-15T14:03:31.952Z,26.10
2022-10-15T14:06:25.687Z,27.70
2022-10-15T14:09:02.636Z,29.10
2022-10-15T14:11:30.669Z,28.40
2022-10-15T14:13:59.113Z,29.60
2022-10-15T14:16:35.749Z,30.50
2022-10-15T14:19:08.938Z,29.50
2022-10-15T14:21:38.113Z,26.20
2022-10-15T14:24:15.125Z,25.80
2022-10-15T14:26:43.287Z,24.80
2022-10-15T14:29:47.455Z,24.00
2022-10-15T14:32:53.894Z,23.80
2022-10-15T14:35:36.822Z,24.50
2022-10-15T14:38:16.950Z,25.80
2022-10-15T14:41:09.133Z,25.80
2022-10-15T14:43:37.520Z,26.50
2022-10-15T14:46:15.927Z,28.90
2022-10-15T14:48:44.449Z,26.40
2022-10-15T14:51:25.511Z,26.50
2022-10-15T14:53:53.862Z,27.30
2022-10-15T14:56:25.286Z,27.40
2022-10-15T14:58:56.816Z,28.00
2022-10-15T15:01:25.037Z,25.80
2022-10-15T15:03:55.240Z,24.90
2022-10-15T15:06:22.574Z,24.10
2022-10-15T15:08:50.171Z,23.60
2022-10-15T15:11:24.534Z,22.80
2022-10-15T15:13:52.562Z,22.40
2022-10-15T15:16:19.865Z,22.00
2022-10-15T15:18:48.752Z,21.80
2022-10-15T15:21:20.994Z,21.60
2022-10-15T15:23:49.210Z,21.70
2022-10-15T15:26:16.403Z,21.70
2022-10-15T15:28:43.507Z,21.60
2022-10-15T15:31:18.121Z,21.00
2022-10-15T15:33:45.531Z,21.00
2022-10-15T15:36:19.062Z,20.60
2022-10-15T15:38:52.123Z,20.30
2022-10-15T15:41:22.631Z,20.30
2022-10-15T15:43:50.140Z,20.30
2022-10-15T15:46:17.694Z,20.10
2022-10-15T15:48:44.838Z,19.90
2022-10-15T15:51:21.567Z,19.60
2022-10-15T15:53:49.190Z,19.50
2022-10-15T15:56:16.315Z,19.40
2022-10-15T15:58:43.702Z,19.30
2022-10-15T16:01:10.743Z,19.20
2022-10-15T16:03:38.584Z,19.10
2022-10-15T16:06:07.453Z,18.90
2022-10-15T16:08:35.925Z,18.80
2022-10-15T16:11:05.534Z,18.70
2022-10-15T16:13:33.097Z,18.50
2022-10-15T16:16:00.216Z,18.40
2022-10-15T16:18:27.245Z,18.20
2022-10-15T16:20:55.930Z,18.10
2022-10-15T16:23:23.088Z,18.00
2022-10-15T16:25:50.573Z,17.90
2022-10-15T16:28:17.820Z,17.80
2022-10-15T16:30:47.861Z,17.70
2022-10-15T16:33:15.058Z,17.60
2022-10-15T16:35:42.456Z,17.60
2022-10-15T16:38:09.549Z,17.50
2022-10-15T16:40:36.580Z,17.50
2022-10-15T16:43:03.631Z,17.40
2022-10-15T16:45:30.658Z,17.40
2022-10-15T16:47:58.117Z,17.30
2022-10-15T16:50:26.272Z,17.30
2022-10-15T16:53:00.127Z,17.20
2022-10-15T16:55:29.215Z,17.10
2022-10-15T16:57:56.295Z,17.00
2022-10-15T17:00:23.346Z,16.90
2022-10-15T17:02:51.607Z,16.90
2022-10-15T17:05:18.772Z,16.80
2022-10-15T17:07:45.870Z,16.70
2022-10-15T17:10:14.821Z,16.50
2022-10-15T17:12:42.222Z,16.40
2022-10-15T17:15:09.923Z,16.30
2022-10-15T17:17:37.051Z,16.30
2022-10-15T17:20:04.799Z,16.20
2022-10-15T17:22:32.120Z,16.20
2022-10-15T17:24:59.254Z,16.10
2022-10-15T17:27:26.704Z,16.00
2022-10-15T17:29:53.786Z,15.90
2022-10-15T17:32:20.859Z,15.90
2022-10-15T17:34:47.981Z,15.80
2022-10-15T17:37:15.336Z,15.80
2022-10-15T17:39:42.794Z,15.70
2022-10-15T17:42:10.072Z,15.70
2022-10-15T17:44:37.237Z,15.60
2022-10-15T17:47:04.480Z,15.60
2022-10-15T17:49:31.666Z,15.50
2022-10-15T17:52:07.951Z,15.50
2022-10-15T17:54:35.306Z,15.40
2022-10-15T17:57:02.508Z,15.40
2022-10-15T17:59:29.672Z,15.30
2022-10-15T18:01:59.933Z,15.20
2022-10-15T18:04:34.598Z,15.20
2022-10-15T18:07:07.160Z,15.10
2022-10-15T18:09:34.628Z,15.10
2022-10-15T18:12:02.903Z,15.00
2022-10-15T18:14:33.795Z,15.00
2022-10-15T18:17:01.005Z,14.80
2022-10-15T18:19:28.685Z,14.70
2022-10-15T18:21:57.656Z,14.70
2022-10-15T18:24:25.167Z,14.60
2022-10-15T18:26:52.907Z,14.60
2022-10-15T18:29:20.731Z,14.60
2022-10-15T18:31:48.072Z,14.60
2022-10-15T18:34:16.039Z,14.50
2022-10-15T18:36:43.781Z,14.30
2022-10-15T18:39:11.619Z,14.30
2022-10-15T18:41:40.121Z,14.30
2022-10-15T18:44:16.705Z,14.30
2022-10-15T18:46:45.856Z,14.30
2022-10-15T18:49:23.778Z,14.30
2022-10-15T18:51:54.337Z,14.30
2022-10-15T18:54:22.312Z,14.30
2022-10-15T18:56:50.263Z,14.30
2022-10-15T18:59:19.511Z,14.30
2022-10-15T19:01:49.344Z,14.30
2022-10-15T19:04:18.629Z,14.30
2022-10-15T19:06:49.702Z,14.20
2022-10-15T19:09:26.414Z,14.20
2022-10-15T19:11:56.095Z,14.20
2022-10-15T19:14:25.774Z,14.10
2022-10-15T19:16:53.313Z,14.10
2022-10-15T19:19:23.092Z,14.10
2022-10-15T19:21:51.781Z,14.10
2022-10-15T19:24:21.241Z,14.00
2022-10-15T19:26:50.541Z,13.90
2022-10-15T19:29:18.116Z,13.90
2022-10-15T19:31:49.087Z,13.90
2022-10-15T19:34:16.371Z,13.80
2022-10-15T19:36:47.444Z,13.80
2022-10-15T19:39:21.436Z,13.80
2022-10-15T19:41:50.355Z,13.80
2022-10-15T19:44:20.452Z,13.70
2022-10-15T19:46:47.549Z,13.70
2022-10-15T19:49:14.995Z,13.70
2022-10-15T19:51:42.327Z,13.70
2022-10-15T19:54:10.215Z,13.70
2022-10-15T19:56:37.377Z,13.70
2022-10-15T19:59:06.737Z,13.70
2022-10-15T20:01:34.464Z,13.70
2022-10-15T20:04:06.086Z,13.70
2022-10-15T20:06:38.364Z,13.70
2022-10-15T20:09:07.079Z,13.60
2022-10-15T20:11:34.828Z,13.60
2022-10-15T20:14:02.598Z,13.50
2022-10-15T20:16:32.708Z,13.50
2022-10-15T20:19:05.513Z,13.50
2022-10-15T20:21:33.358Z,13.50
2022-10-15T20:24:04.422Z,13.60
2022-10-15T20:26:32.600Z,13.60
2022-10-15T20:29:00.606Z,13.60
2022-10-15T20:31:32.256Z,13.50
2022-10-15T20:34:00.846Z,13.50
2022-10-15T20:36:28.755Z,13.50
2022-10-15T20:38:57.512Z,13.50
2022-10-15T20:41:25.204Z,13.50
2022-10-15T20:43:55.204Z,13.50
2022-10-15T20:46:37.722Z,13.60
2022-10-15T20:49:09.863Z,13.60
2022-10-15T20:51:40.408Z,13.60
2022-10-15T20:54:08.294Z,13.60
2022-10-15T20:56:35.660Z,13.70
2022-10-15T20:59:03.985Z,13.70
2022-10-15T21:01:32.360Z,13.80
2022-10-15T21:03:59.755Z,13.80
2022-10-15T21:06:26.851Z,13.80
2022-10-15T21:08:53.971Z,13.90
2022-10-15T21:11:21.054Z,13.90
2022-10-15T21:13:48.095Z,13.90
2022-10-15T21:16:15.418Z,13.90
2022-10-15T21:18:42.714Z,13.90
2022-10-15T21:21:13.453Z,14.00
2022-10-15T21:23:42.450Z,14.10
2022-10-15T21:26:18.686Z,14.10
2022-10-15T21:28:46.415Z,14.20
2022-10-15T21:31:16.793Z,14.20
2022-10-15T21:33:46.058Z,14.30
2022-10-15T21:36:22.383Z,14.30
2022-10-15T21:38:57.521Z,14.30
2022-10-15T21:41:27.280Z,14.30
2022-10-15T21:43:54.956Z,14.30
2022-10-15T21:46:22.647Z,14.30
2022-10-15T21:48:51.717Z,14.30
2022-10-15T21:51:24.023Z,14.20
2022-10-15T21:53:51.596Z,14.20
2022-10-15T21:56:19.543Z,14.20
2022-10-15T21:58:47.160Z,14.10
2022-10-15T22:01:31.864Z,14.20
2022-10-15T22:04:02.695Z,14.20
2022-10-15T22:06:32.053Z,14.30
2022-10-15T22:09:00.039Z,14.30
2022-10-15T22:11:34.284Z,14.30
2022-10-15T22:14:05.810Z,14.30
2022-10-15T22:16:36.066Z,14.40
2022-10-15T22:19:04.683Z,14.40
2022-10-15T22:21:36.420Z,14.30
2022-10-15T22:24:12.877Z,14.40
2022-10-15T22:26:44.452Z,14.30
2022-10-15T22:29:20.043Z,14.20
2022-10-15T22:31:48.113Z,14.20
2022-10-15T22:34:15.747Z,14.10
2022-10-15T22:36:42.835Z,13.90
2022-10-15T22:39:13.420Z,14.00
2022-10-15T22:41:43.243Z,13.90
2022-10-15T22:44:17.458Z,14.00
2022-10-15T22:46:46.236Z,14.00
2022-10-15T22:49:15.073Z,14.10
2022-10-15T22:51:43.010Z,14.10
2022-10-15T22:54:11.805Z,14.10
2022-10-15T22:56:39.027Z,14.10
2022-10-15T22:59:06.304Z,14.10
2022-10-15T23:01:35.197Z,14.00
2022-10-15T23:04:06.293Z,14.00
2022-10-15T23:06:36.951Z,14.00
2022-10-15T23:09:06.558Z,14.00
2022-10-15T23:11:37.720Z,14.00
2022-10-15T23:14:13.274Z,14.00
2022-10-15T23:16:44.019Z,14.00
2022-10-15T23:19:23.174Z,14.00
2022-10-15T23:21:56.569Z,14.00
2022-10-15T23:24:26.693Z,13.90
2022-10-15T23:26:54.153Z,14.00
2022-10-15T23:29:23.940Z,13.90
2022-10-15T23:31:51.572Z,13.90
2022-10-15T23:34:22.993Z,13.90
2022-10-15T23:36:50.509Z,14.00
2022-10-15T23:39:21.422Z,13.90
2022-10-15T23:41:48.518Z,13.80
2022-10-15T23:44:15.869Z,13.80
2022-10-15T23:46:43.397Z,13.90
2022-10-15T23:49:10.753Z,13.90
2022-10-15T23:51:38.115Z,13.90
2022-10-15T23:54:16.326Z,13.90
2022-10-15T23:56:45.410Z,13.90
2022-10-15T23:59:12.971Z,13.90
